sensor_id;sensor_type;location;lat;lon;timestamp;P1;durP1;ratioP1;P2;durP2;ratioP2
38935;SDS011;25541;47.458;9.644;2022-07-29T02:47:47;1.05;;;0.20;;
38935;SDS011;25541;47.458;9.644;2022-07-29T02:50:27;1.10;;;0.10;;
38935;SDS011;25541;47.458;9.644;2022-07-29T02:53:05;0.60;;;0.10;;
38935;SDS011;25541;47.458;9.644;2022-07-29T02:55:44;0.50;;;0.20;;
38935;SDS011;25541;47.458;9.644;2022-07-29T03:01:11;1.38;;;0.20;;
38935;SDS011;25541;47.458;9.644;2022-07-29T03:03:40;0.60;;;0.10;;
38935;SDS011;25541;47.458;9.644;2022-07-29T03:06:09;1.55;;;0.20;;
38935;SDS011;25541;47.458;9.644;2022-07-29T03:08:38;1.67;;;0.30;;
38935;SDS011;25541;47.458;9.644;2022-07-29T03:11:05;4.07;;;0.20;;
38935;SDS011;25541;47.458;9.644;2022-07-29T03:13:33;2.05;;;0.10;;
38935;SDS011;25541;47.458;9.644;2022-07-29T03:16:00;1.27;;;0.20;;
38935;SDS011;25541;47.458;9.644;2022-07-29T03:18:26;0.65;;;0.20;;
38935;SDS011;25541;47.458;9.644;2022-07-29T03:20:52;1.55;;;0.20;;
38935;SDS011;25541;47.458;9.644;2022-07-29T03:23:19;1.75;;;0.20;;
38935;SDS011;25541;47.458;9.644;2022-07-29T03:25:51;0.50;;;0.10;;
38935;SDS011;25541;47.458;9.644;2022-07-29T03:28:18;2.63;;;0.20;;
38935;SDS011;25541;47.458;9.644;2022-07-29T03:30:44;1.25;;;0.13;;
38935;SDS011;25541;47.458;9.644;2022-07-29T03:33:10;0.70;;;0.10;;
38935;SDS011;25541;47.458;9.644;2022-07-29T03:35:36;1.10;;;0.10;;
38935;SDS011;25541;47.458;9.644;2022-07-29T03:38:02;1.40;;;0.20;;
38935;SDS011;25541;47.458;9.644;2022-07-29T03:40:32;1.85;;;0.10;;
38935;SDS011;25541;47.458;9.644;2022-07-29T03:43:03;1.05;;;0.22;;
38935;SDS011;25541;47.458;9.644;2022-07-29T03:45:31;2.78;;;0.22;;
38935;SDS011;25541;47.458;9.644;2022-07-29T03:48:02;0.80;;;0.20;;
38935;SDS011;25541;47.458;9.644;2022-07-29T03:50:35;0.98;;;0.20;;
38935;SDS011;25541;47.458;9.644;2022-07-29T03:53:00;1.38;;;0.20;;
38935;SDS011;25541;47.458;9.644;2022-07-29T03:55:28;1.10;;;0.20;;
38935;SDS011;25541;47.458;9.644;2022-07-29T03:57:57;1.35;;;0.15;;
38935;SDS011;25541;47.458;9.644;2022-07-29T04:00:25;0.98;;;0.10;;
38935;SDS011;25541;47.458;9.644;2022-07-29T04:02:51;1.10;;;0.15;;
38935;SDS011;25541;47.458;9.644;2022-07-29T04:05:18;0.90;;;0.20;;
38935;SDS011;25541;47.458;9.644;2022-07-29T04:07:44;1.00;;;0.22;;
38935;SDS011;25541;47.458;9.644;2022-07-29T04:10:11;1.67;;;0.20;;
38935;SDS011;25541;47.458;9.644;2022-07-29T04:12:36;2.25;;;0.20;;
38935;SDS011;25541;47.458;9.644;2022-07-29T04:15:03;2.70;;;0.28;;
38935;SDS011;25541;47.458;9.644;2022-07-29T04:17:29;0.93;;;0.20;;
38935;SDS011;25541;47.458;9.644;2022-07-29T04:19:55;1.65;;;0.20;;
38935;SDS011;25541;47.458;9.644;2022-07-29T04:22:20;0.77;;;0.15;;
38935;SDS011;25541;47.458;9.644;2022-07-29T04:24:46;1.08;;;0.22;;
38935;SDS011;25541;47.458;9.644;2022-07-29T04:27:12;1.52;;;0.30;;
38935;SDS011;25541;47.458;9.644;2022-07-29T04:29:37;0.70;;;0.10;;
38935;SDS011;25541;47.458;9.644;2022-07-29T04:32:03;1.10;;;0.20;;
38935;SDS011;25541;47.458;9.644;2022-07-29T04:34:29;0.82;;;0.20;;
38935;SDS011;25541;47.458;9.644;2022-07-29T04:36:55;2.38;;;0.30;;
38935;SDS011;25541;47.458;9.644;2022-07-29T04:39:21;1.42;;;0.20;;
38935;SDS011;25541;47.458;9.644;2022-07-29T04:41:46;2.03;;;0.22;;
38935;SDS011;25541;47.458;9.644;2022-07-29T04:44:12;1.63;;;0.30;;
38935;SDS011;25541;47.458;9.644;2022-07-29T04:46:38;2.60;;;0.32;;
38935;SDS011;25541;47.458;9.644;2022-07-29T04:49:04;1.30;;;0.30;;
38935;SDS011;25541;47.458;9.644;2022-07-29T04:51:30;1.88;;;0.60;;
38935;SDS011;25541;47.458;9.644;2022-07-29T04:53:56;3.05;;;0.15;;
38935;SDS011;25541;47.458;9.644;2022-07-29T04:56:21;1.13;;;0.10;;
38935;SDS011;25541;47.458;9.644;2022-07-29T04:58:47;1.90;;;0.22;;
38935;SDS011;25541;47.458;9.644;2022-07-29T05:01:13;0.77;;;0.32;;
38935;SDS011;25541;47.458;9.644;2022-07-29T05:03:39;3.55;;;0.30;;
38935;SDS011;25541;47.458;9.644;2022-07-29T05:06:05;1.02;;;0.28;;
38935;SDS011;25541;47.458;9.644;2022-07-29T05:08:31;3.15;;;0.38;;
38935;SDS011;25541;47.458;9.644;2022-07-29T05:10:57;1.20;;;0.68;;
38935;SDS011;25541;47.458;9.644;2022-07-29T05:13:23;1.95;;;0.30;;
38935;SDS011;25541;47.458;9.644;2022-07-29T05:15:48;2.00;;;0.20;;
38935;SDS011;25541;47.458;9.644;2022-07-29T05:18:14;1.90;;;0.25;;
38935;SDS011;25541;47.458;9.644;2022-07-29T05:20:40;1.00;;;0.22;;
38935;SDS011;25541;47.458;9.644;2022-07-29T05:23:06;0.75;;;0.30;;
38935;SDS011;25541;47.458;9.644;2022-07-29T05:25:32;0.70;;;0.28;;
38935;SDS011;25541;47.458;9.644;2022-07-29T05:27:58;3.85;;;0.40;;
38935;SDS011;25541;47.458;9.644;2022-07-29T05:30:24;1.10;;;0.25;;
38935;SDS011;25541;47.458;9.644;2022-07-29T05:32:49;2.53;;;0.52;;
38935;SDS011;25541;47.458;9.644;2022-07-29T05:35:15;1.00;;;0.15;;
38935;SDS011;25541;47.458;9.644;2022-07-29T05:37:41;0.63;;;0.20;;
38935;SDS011;25541;47.458;9.644;2022-07-29T05:40:07;1.17;;;0.43;;
38935;SDS011;25541;47.458;9.644;2022-07-29T05:42:33;2.17;;;0.38;;
38935;SDS011;25541;47.458;9.644;2022-07-29T05:45:00;2.53;;;0.60;;
38935;SDS011;25541;47.458;9.644;2022-07-29T05:47:26;2.88;;;0.32;;
38935;SDS011;25541;47.458;9.644;2022-07-29T05:49:51;3.17;;;0.32;;
38935;SDS011;25541;47.458;9.644;2022-07-29T05:52:18;5.68;;;0.43;;
38935;SDS011;25541;47.458;9.644;2022-07-29T05:54:43;4.25;;;0.68;;
38935;SDS011;25541;47.458;9.644;2022-07-29T05:57:16;1.73;;;0.40;;
38935;SDS011;25541;47.458;9.644;2022-07-29T05:59:42;1.33;;;0.40;;
38935;SDS011;25541;47.458;9.644;2022-07-29T06:02:08;1.10;;;0.30;;
38935;SDS011;25541;47.458;9.644;2022-07-29T06:04:34;2.05;;;0.40;;
38935;SDS011;25541;47.458;9.644;2022-07-29T06:06:59;2.50;;;0.30;;
38935;SDS011;25541;47.458;9.644;2022-07-29T06:09:26;2.35;;;0.70;;
38935;SDS011;25541;47.458;9.644;2022-07-29T06:11:52;1.35;;;0.20;;
38935;SDS011;25541;47.458;9.644;2022-07-29T06:14:18;3.90;;;0.25;;
38935;SDS011;25541;47.458;9.644;2022-07-29T06:16:44;1.45;;;0.28;;
38935;SDS011;25541;47.458;9.644;2022-07-29T06:19:10;1.15;;;0.40;;
38935;SDS011;25541;47.458;9.644;2022-07-29T06:21:36;1.50;;;0.25;;
38935;SDS011;25541;47.458;9.644;2022-07-29T06:24:06;3.28;;;0.30;;
38935;SDS011;25541;47.458;9.644;2022-07-29T06:26:32;1.27;;;0.20;;
38935;SDS011;25541;47.458;9.644;2022-07-29T06:28:58;0.90;;;0.20;;
38935;SDS011;25541;47.458;9.644;2022-07-29T06:31:24;2.88;;;0.30;;
38935;SDS011;25541;47.458;9.644;2022-07-29T06:33:49;4.50;;;0.85;;
38935;SDS011;25541;47.458;9.644;2022-07-29T06:36:15;8.25;;;0.60;;
38935;SDS011;25541;47.458;9.644;2022-07-29T06:38:41;5.05;;;0.22;;
38935;SDS011;25541;47.458;9.644;2022-07-29T06:41:07;1.40;;;0.47;;
38935;SDS011;25541;47.458;9.644;2022-07-29T06:43:40;2.63;;;0.32;;
38935;SDS011;25541;47.458;9.644;2022-07-29T06:46:08;1.88;;;0.38;;
38935;SDS011;25541;47.458;9.644;2022-07-29T06:48:35;1.13;;;0.32;;
38935;SDS011;25541;47.458;9.644;2022-07-29T06:51:02;1.92;;;0.38;;
38935;SDS011;25541;47.458;9.644;2022-07-29T06:53:29;1.55;;;0.30;;
38935;SDS011;25541;47.458;9.644;2022-07-29T06:55:55;1.98;;;0.30;;
38935;SDS011;25541;47.458;9.644;2022-07-29T06:58:23;1.50;;;0.30;;
38935;SDS011;25541;47.458;9.644;2022-07-29T07:00:49;2.45;;;0.38;;
38935;SDS011;25541;47.458;9.644;2022-07-29T07:03:15;1.33;;;0.30;;
38935;SDS011;25541;47.458;9.644;2022-07-29T07:05:42;1.73;;;0.30;;
38935;SDS011;25541;47.458;9.644;2022-07-29T07:08:08;1.02;;;0.30;;
38935;SDS011;25541;47.458;9.644;2022-07-29T07:10:34;2.97;;;0.30;;
38935;SDS011;25541;47.458;9.644;2022-07-29T07:13:00;2.05;;;0.30;;
38935;SDS011;25541;47.458;9.644;2022-07-29T07:15:26;1.58;;;0.50;;
38935;SDS011;25541;47.458;9.644;2022-07-29T07:17:53;1.98;;;0.43;;
38935;SDS011;25541;47.458;9.644;2022-07-29T07:20:18;1.02;;;0.30;;
38935;SDS011;25541;47.458;9.644;2022-07-29T07:22:44;3.00;;;0.55;;
38935;SDS011;25541;47.458;9.644;2022-07-29T07:25:11;2.60;;;0.40;;
38935;SDS011;25541;47.458;9.644;2022-07-29T07:27:38;1.33;;;0.28;;
38935;SDS011;25541;47.458;9.644;2022-07-29T07:30:04;2.67;;;0.55;;
38935;SDS011;25541;47.458;9.644;2022-07-29T07:32:32;4.50;;;0.40;;
38935;SDS011;25541;47.458;9.644;2022-07-29T07:34:58;1.23;;;0.30;;
38935;SDS011;25541;47.458;9.644;2022-07-29T07:37:24;2.72;;;0.60;;
38935;SDS011;25541;47.458;9.644;2022-07-29T07:39:51;1.08;;;0.22;;
38935;SDS011;25541;47.458;9.644;2022-07-29T07:42:17;1.50;;;0.43;;
38935;SDS011;25541;47.458;9.644;2022-07-29T07:44:43;1.20;;;0.60;;
38935;SDS011;25541;47.458;9.644;2022-07-29T07:47:10;2.67;;;0.90;;
38935;SDS011;25541;47.458;9.644;2022-07-29T07:49:37;3.83;;;0.43;;
38935;SDS011;25541;47.458;9.644;2022-07-29T07:52:03;2.05;;;0.50;;
38935;SDS011;25541;47.458;9.644;2022-07-29T07:54:29;1.20;;;0.35;;
38935;SDS011;25541;47.458;9.644;2022-07-29T07:56:55;3.35;;;0.65;;
38935;SDS011;25541;47.458;9.644;2022-07-29T07:59:21;2.78;;;0.47;;
38935;SDS011;25541;47.458;9.644;2022-07-29T08:01:47;1.35;;;0.52;;
38935;SDS011;25541;47.458;9.644;2022-07-29T08:04:13;1.98;;;0.75;;
38935;SDS011;25541;47.458;9.644;2022-07-29T08:06:39;2.13;;;0.73;;
38935;SDS011;25541;47.458;9.644;2022-07-29T08:09:05;2.42;;;0.75;;
38935;SDS011;25541;47.458;9.644;2022-07-29T08:11:31;4.28;;;0.75;;
38935;SDS011;25541;47.458;9.644;2022-07-29T08:13:57;2.45;;;0.95;;
38935;SDS011;25541;47.458;9.644;2022-07-29T08:16:22;1.10;;;0.50;;
38935;SDS011;25541;47.458;9.644;2022-07-29T08:18:50;3.25;;;0.70;;
38935;SDS011;25541;47.458;9.644;2022-07-29T08:21:17;1.55;;;0.90;;
38935;SDS011;25541;47.458;9.644;2022-07-29T08:23:45;20.50;;;2.00;;
38935;SDS011;25541;47.458;9.644;2022-07-29T08:26:14;2.53;;;0.40;;
38935;SDS011;25541;47.458;9.644;2022-07-29T08:28:41;2.47;;;0.30;;
38935;SDS011;25541;47.458;9.644;2022-07-29T08:31:11;0.95;;;0.30;;
38935;SDS011;25541;47.458;9.644;2022-07-29T08:33:37;0.80;;;0.20;;
38935;SDS011;25541;47.458;9.644;2022-07-29T08:36:04;1.40;;;0.60;;
38935;SDS011;25541;47.458;9.644;2022-07-29T08:38:30;3.40;;;0.55;;
38935;SDS011;25541;47.458;9.644;2022-07-29T08:40:56;1.33;;;0.30;;
38935;SDS011;25541;47.458;9.644;2022-07-29T08:43:22;0.82;;;0.43;;
38935;SDS011;25541;47.458;9.644;2022-07-29T08:45:49;1.90;;;0.40;;
38935;SDS011;25541;47.458;9.644;2022-07-29T08:48:17;1.77;;;0.40;;
38935;SDS011;25541;47.458;9.644;2022-07-29T08:50:44;2.70;;;0.57;;
38935;SDS011;25541;47.458;9.644;2022-07-29T08:53:11;1.45;;;0.38;;
38935;SDS011;25541;47.458;9.644;2022-07-29T08:55:46;2.60;;;0.60;;
38935;SDS011;25541;47.458;9.644;2022-07-29T08:58:13;1.15;;;0.38;;
38935;SDS011;25541;47.458;9.644;2022-07-29T09:00:44;2.55;;;0.30;;
38935;SDS011;25541;47.458;9.644;2022-07-29T09:03:15;3.25;;;0.43;;
38935;SDS011;25541;47.458;9.644;2022-07-29T09:05:44;2.35;;;0.68;;
38935;SDS011;25541;47.458;9.644;2022-07-29T09:08:11;2.08;;;0.90;;
38935;SDS011;25541;47.458;9.644;2022-07-29T09:10:38;2.78;;;0.60;;
38935;SDS011;25541;47.458;9.644;2022-07-29T09:13:04;4.15;;;0.43;;
38935;SDS011;25541;47.458;9.644;2022-07-29T09:15:30;1.10;;;0.25;;
38935;SDS011;25541;47.458;9.644;2022-07-29T09:17:56;1.35;;;0.40;;
38935;SDS011;25541;47.458;9.644;2022-07-29T09:20:23;2.95;;;0.22;;
38935;SDS011;25541;47.458;9.644;2022-07-29T09:22:50;4.13;;;0.55;;
38935;SDS011;25541;47.458;9.644;2022-07-29T09:25:35;1.27;;;0.30;;
38935;SDS011;25541;47.458;9.644;2022-07-29T09:28:12;1.63;;;0.30;;
38935;SDS011;25541;47.458;9.644;2022-07-29T09:30:52;1.35;;;0.32;;
38935;SDS011;25541;47.458;9.644;2022-07-29T09:33:20;1.30;;;0.57;;
38935;SDS011;25541;47.458;9.644;2022-07-29T09:35:58;2.38;;;0.40;;
38935;SDS011;25541;47.458;9.644;2022-07-29T09:38:28;1.67;;;0.45;;
38935;SDS011;25541;47.458;9.644;2022-07-29T09:40:58;1.00;;;0.40;;
38935;SDS011;25541;47.458;9.644;2022-07-29T09:43:25;1.25;;;0.40;;
38935;SDS011;25541;47.458;9.644;2022-07-29T09:45:51;2.17;;;0.47;;
38935;SDS011;25541;47.458;9.644;2022-07-29T09:48:21;1.40;;;0.43;;
38935;SDS011;25541;47.458;9.644;2022-07-29T09:50:49;3.15;;;0.43;;
38935;SDS011;25541;47.458;9.644;2022-07-29T09:55:58;1.42;;;0.57;;
38935;SDS011;25541;47.458;9.644;2022-07-29T09:58:23;1.65;;;0.52;;
38935;SDS011;25541;47.458;9.644;2022-07-29T10:00:49;2.05;;;0.52;;
38935;SDS011;25541;47.458;9.644;2022-07-29T10:03:17;2.55;;;0.60;;
38935;SDS011;25541;47.458;9.644;2022-07-29T10:05:43;2.40;;;1.10;;
38935;SDS011;25541;47.458;9.644;2022-07-29T10:08:10;2.63;;;0.82;;
38935;SDS011;25541;47.458;9.644;2022-07-29T10:10:41;2.40;;;0.70;;
38935;SDS011;25541;47.458;9.644;2022-07-29T10:13:08;1.67;;;0.60;;
38935;SDS011;25541;47.458;9.644;2022-07-29T10:15:36;2.47;;;0.73;;
38935;SDS011;25541;47.458;9.644;2022-07-29T10:18:06;1.15;;;0.50;;
38935;SDS011;25541;47.458;9.644;2022-07-29T10:20:32;2.97;;;0.57;;
38935;SDS011;25541;47.458;9.644;2022-07-29T10:22:58;1.27;;;0.55;;
38935;SDS011;25541;47.458;9.644;2022-07-29T10:25:25;2.42;;;0.88;;
38935;SDS011;25541;47.458;9.644;2022-07-29T10:27:51;3.08;;;0.77;;
38935;SDS011;25541;47.458;9.644;2022-07-29T10:30:18;2.75;;;0.80;;
38935;SDS011;25541;47.458;9.644;2022-07-29T10:44:01;1.80;;;0.93;;
38935;SDS011;25541;47.458;9.644;2022-07-29T10:46:37;1.65;;;0.70;;
38935;SDS011;25541;47.458;9.644;2022-07-29T11:05:13;2.03;;;0.75;;
38935;SDS011;25541;47.458;9.644;2022-07-29T11:10:42;2.80;;;0.70;;
38935;SDS011;25541;47.458;9.644;2022-07-29T11:13:08;1.95;;;0.43;;
38935;SDS011;25541;47.458;9.644;2022-07-29T11:15:55;3.40;;;0.52;;
38935;SDS011;25541;47.458;9.644;2022-07-29T11:18:22;2.47;;;0.50;;
38935;SDS011;25541;47.458;9.644;2022-07-29T11:20:48;2.47;;;0.90;;
38935;SDS011;25541;47.458;9.644;2022-07-29T11:31:38;1.50;;;0.60;;
38935;SDS011;25541;47.458;9.644;2022-07-29T11:39:35;1.98;;;0.98;;
38935;SDS011;25541;47.458;9.644;2022-07-29T11:44:57;4.25;;;0.80;;
38935;SDS011;25541;47.458;9.644;2022-07-29T11:47:27;1.95;;;1.00;;
38935;SDS011;25541;47.458;9.644;2022-07-29T11:49:55;1.25;;;0.68;;
38935;SDS011;25541;47.458;9.644;2022-07-29T11:52:22;2.05;;;0.75;;
38935;SDS011;25541;47.458;9.644;2022-07-29T11:54:49;1.95;;;0.73;;
38935;SDS011;25541;47.458;9.644;2022-07-29T11:57:18;1.48;;;0.60;;
38935;SDS011;25541;47.458;9.644;2022-07-29T11:59:46;1.75;;;1.05;;
38935;SDS011;25541;47.458;9.644;2022-07-29T12:02:13;2.80;;;0.68;;
38935;SDS011;25541;47.458;9.644;2022-07-29T12:04:52;1.35;;;0.68;;
38935;SDS011;25541;47.458;9.644;2022-07-29T12:07:18;3.17;;;0.75;;
38935;SDS011;25541;47.458;9.644;2022-07-29T12:09:53;4.70;;;0.70;;
38935;SDS011;25541;47.458;9.644;2022-07-29T12:12:20;2.72;;;0.70;;
38935;SDS011;25541;47.458;9.644;2022-07-29T12:14:46;1.63;;;0.82;;
38935;SDS011;25541;47.458;9.644;2022-07-29T12:17:29;3.13;;;0.85;;
38935;SDS011;25541;47.458;9.644;2022-07-29T12:19:59;2.25;;;0.95;;
38935;SDS011;25541;47.458;9.644;2022-07-29T12:25:03;1.98;;;0.70;;
38935;SDS011;25541;47.458;9.644;2022-07-29T12:27:31;1.77;;;0.57;;
38935;SDS011;25541;47.458;9.644;2022-07-29T12:32:35;2.47;;;0.77;;
38935;SDS011;25541;47.458;9.644;2022-07-29T12:37:40;1.88;;;0.70;;
38935;SDS011;25541;47.458;9.644;2022-07-29T12:40:07;1.95;;;0.77;;
38935;SDS011;25541;47.458;9.644;2022-07-29T12:42:35;2.42;;;0.82;;
38935;SDS011;25541;47.458;9.644;2022-07-29T12:45:02;2.55;;;0.88;;
38935;SDS011;25541;47.458;9.644;2022-07-29T12:47:29;1.52;;;0.70;;
38935;SDS011;25541;47.458;9.644;2022-07-29T12:50:08;3.25;;;0.98;;
38935;SDS011;25541;47.458;9.644;2022-07-29T12:52:36;1.67;;;0.80;;
38935;SDS011;25541;47.458;9.644;2022-07-29T12:55:02;1.88;;;0.82;;
38935;SDS011;25541;47.458;9.644;2022-07-29T12:57:29;1.10;;;0.43;;
38935;SDS011;25541;47.458;9.644;2022-07-29T13:02:35;1.88;;;0.80;;
38935;SDS011;25541;47.458;9.644;2022-07-29T13:05:02;1.15;;;0.52;;
38935;SDS011;25541;47.458;9.644;2022-07-29T13:07:30;1.67;;;0.68;;
38935;SDS011;25541;47.458;9.644;2022-07-29T13:10:19;4.10;;;0.90;;
38935;SDS011;25541;47.458;9.644;2022-07-29T13:13:05;2.58;;;1.02;;
38935;SDS011;25541;47.458;9.644;2022-07-29T13:15:32;1.88;;;0.70;;
38935;SDS011;25541;47.458;9.644;2022-07-29T13:17:58;4.82;;;0.80;;
38935;SDS011;25541;47.458;9.644;2022-07-29T13:20:25;4.95;;;1.67;;
38935;SDS011;25541;47.458;9.644;2022-07-29T13:22:54;1.67;;;0.90;;
38935;SDS011;25541;47.458;9.644;2022-07-29T13:25:28;2.17;;;0.60;;
38935;SDS011;25541;47.458;9.644;2022-07-29T13:27:55;1.95;;;0.70;;
38935;SDS011;25541;47.458;9.644;2022-07-29T13:30:21;3.70;;;0.73;;
38935;SDS011;25541;47.458;9.644;2022-07-29T13:32:48;2.22;;;0.68;;
38935;SDS011;25541;47.458;9.644;2022-07-29T13:35:15;1.70;;;0.80;;
38935;SDS011;25541;47.458;9.644;2022-07-29T13:37:41;5.28;;;1.10;;
38935;SDS011;25541;47.458;9.644;2022-07-29T13:40:08;2.65;;;0.77;;
38935;SDS011;25541;47.458;9.644;2022-07-29T13:42:34;4.45;;;1.98;;
38935;SDS011;25541;47.458;9.644;2022-07-29T13:45:00;2.42;;;1.13;;
38935;SDS011;25541;47.458;9.644;2022-07-29T13:47:27;4.57;;;0.98;;
38935;SDS011;25541;47.458;9.644;2022-07-29T13:49:53;3.78;;;1.17;;
38935;SDS011;25541;47.458;9.644;2022-07-29T13:52:20;2.42;;;0.65;;
38935;SDS011;25541;47.458;9.644;2022-07-29T13:54:45;2.58;;;0.80;;
38935;SDS011;25541;47.458;9.644;2022-07-29T13:57:11;1.83;;;0.65;;
38935;SDS011;25541;47.458;9.644;2022-07-29T13:59:41;1.67;;;0.88;;
38935;SDS011;25541;47.458;9.644;2022-07-29T14:04:34;1.85;;;1.00;;
38935;SDS011;25541;47.458;9.644;2022-07-29T14:07:00;2.25;;;1.10;;
38935;SDS011;25541;47.458;9.644;2022-07-29T14:09:25;2.22;;;0.95;;
38935;SDS011;25541;47.458;9.644;2022-07-29T14:11:51;1.42;;;0.95;;
38935;SDS011;25541;47.458;9.644;2022-07-29T14:14:17;2.13;;;0.93;;
38935;SDS011;25541;47.458;9.644;2022-07-29T14:16:44;1.88;;;1.30;;
38935;SDS011;25541;47.458;9.644;2022-07-29T14:19:10;2.38;;;0.80;;
38935;SDS011;25541;47.458;9.644;2022-07-29T14:21:36;1.90;;;0.93;;
38935;SDS011;25541;47.458;9.644;2022-07-29T14:24:02;2.90;;;0.90;;
38935;SDS011;25541;47.458;9.644;2022-07-29T14:26:28;4.07;;;1.05;;
38935;SDS011;25541;47.458;9.644;2022-07-29T14:28:54;2.08;;;0.82;;
38935;SDS011;25541;47.458;9.644;2022-07-29T14:31:20;1.67;;;0.80;;
38935;SDS011;25541;47.458;9.644;2022-07-29T14:33:45;2.72;;;0.80;;
38935;SDS011;25541;47.458;9.644;2022-07-29T14:36:11;2.85;;;0.93;;
38935;SDS011;25541;47.458;9.644;2022-07-29T14:38:37;2.25;;;0.70;;
38935;SDS011;25541;47.458;9.644;2022-07-29T14:41:03;2.13;;;0.90;;
38935;SDS011;25541;47.458;9.644;2022-07-29T14:43:29;2.13;;;0.80;;
38935;SDS011;25541;47.458;9.644;2022-07-29T14:45:55;1.85;;;0.55;;
38935;SDS011;25541;47.458;9.644;2022-07-29T14:48:21;2.22;;;0.85;;
38935;SDS011;25541;47.458;9.644;2022-07-29T14:50:47;4.75;;;1.17;;
38935;SDS011;25541;47.458;9.644;2022-07-29T14:53:12;1.55;;;0.65;;
38935;SDS011;25541;47.458;9.644;2022-07-29T14:55:38;3.05;;;1.00;;
38935;SDS011;25541;47.458;9.644;2022-07-29T14:58:05;1.98;;;1.10;;
38935;SDS011;25541;47.458;9.644;2022-07-29T15:00:31;1.63;;;0.70;;
38935;SDS011;25541;47.458;9.644;2022-07-29T15:02:58;2.05;;;0.90;;
38935;SDS011;25541;47.458;9.644;2022-07-29T15:05:25;3.55;;;0.95;;
38935;SDS011;25541;47.458;9.644;2022-07-29T15:07:51;3.00;;;0.90;;
38935;SDS011;25541;47.458;9.644;2022-07-29T15:10:17;2.33;;;1.25;;
38935;SDS011;25541;47.458;9.644;2022-07-29T15:12:43;2.25;;;0.93;;
38935;SDS011;25541;47.458;9.644;2022-07-29T15:15:09;1.77;;;0.65;;
38935;SDS011;25541;47.458;9.644;2022-07-29T15:17:35;3.28;;;0.82;;
38935;SDS011;25541;47.458;9.644;2022-07-29T15:20:00;2.47;;;0.80;;
38935;SDS011;25541;47.458;9.644;2022-07-29T15:22:26;3.03;;;0.57;;
38935;SDS011;25541;47.458;9.644;2022-07-29T15:24:52;2.05;;;0.60;;
38935;SDS011;25541;47.458;9.644;2022-07-29T15:27:18;2.03;;;0.80;;
38935;SDS011;25541;47.458;9.644;2022-07-29T15:29:44;1.70;;;0.73;;
38935;SDS011;25541;47.458;9.644;2022-07-29T15:32:10;1.40;;;0.57;;
38935;SDS011;25541;47.458;9.644;2022-07-29T15:34:36;2.10;;;0.63;;
38935;SDS011;25541;47.458;9.644;2022-07-29T15:37:03;1.52;;;0.70;;
38935;SDS011;25541;47.458;9.644;2022-07-29T15:39:30;2.13;;;0.75;;
38935;SDS011;25541;47.458;9.644;2022-07-29T15:41:55;2.58;;;0.75;;
38935;SDS011;25541;47.458;9.644;2022-07-29T15:44:21;3.53;;;0.80;;
38935;SDS011;25541;47.458;9.644;2022-07-29T15:46:49;2.17;;;0.57;;
38935;SDS011;25541;47.458;9.644;2022-07-29T15:49:33;5.15;;;1.13;;
38935;SDS011;25541;47.458;9.644;2022-07-29T15:52:02;3.97;;;0.70;;
38935;SDS011;25541;47.458;9.644;2022-07-29T15:54:37;2.28;;;0.77;;
38935;SDS011;25541;47.458;9.644;2022-07-29T15:57:05;2.13;;;0.57;;
38935;SDS011;25541;47.458;9.644;2022-07-29T15:59:31;2.50;;;0.60;;
38935;SDS011;25541;47.458;9.644;2022-07-29T16:01:58;2.40;;;1.35;;
38935;SDS011;25541;47.458;9.644;2022-07-29T16:04:24;2.05;;;0.80;;
38935;SDS011;25541;47.458;9.644;2022-07-29T16:06:50;2.03;;;0.47;;
38935;SDS011;25541;47.458;9.644;2022-07-29T16:09:16;1.30;;;0.50;;
38935;SDS011;25541;47.458;9.644;2022-07-29T16:11:42;2.08;;;0.85;;
38935;SDS011;25541;47.458;9.644;2022-07-29T16:14:10;1.70;;;0.90;;
38935;SDS011;25541;47.458;9.644;2022-07-29T16:16:36;2.35;;;0.73;;
38935;SDS011;25541;47.458;9.644;2022-07-29T16:19:02;4.57;;;0.70;;
38935;SDS011;25541;47.458;9.644;2022-07-29T16:21:28;2.60;;;1.10;;
38935;SDS011;25541;47.458;9.644;2022-07-29T16:23:55;2.38;;;0.65;;
38935;SDS011;25541;47.458;9.644;2022-07-29T16:26:22;2.92;;;0.88;;
38935;SDS011;25541;47.458;9.644;2022-07-29T16:28:48;2.03;;;0.60;;
38935;SDS011;25541;47.458;9.644;2022-07-29T16:31:14;2.22;;;1.02;;
38935;SDS011;25541;47.458;9.644;2022-07-29T16:33:39;1.90;;;0.60;;
38935;SDS011;25541;47.458;9.644;2022-07-29T16:36:05;3.08;;;0.93;;
38935;SDS011;25541;47.458;9.644;2022-07-29T16:38:31;2.10;;;0.70;;
38935;SDS011;25541;47.458;9.644;2022-07-29T16:40:57;1.50;;;0.55;;
38935;SDS011;25541;47.458;9.644;2022-07-29T16:43:22;4.43;;;0.98;;
38935;SDS011;25541;47.458;9.644;2022-07-29T16:45:48;2.63;;;0.70;;
38935;SDS011;25541;47.458;9.644;2022-07-29T16:48:14;2.65;;;0.68;;
38935;SDS011;25541;47.458;9.644;2022-07-29T16:50:40;3.15;;;0.70;;
38935;SDS011;25541;47.458;9.644;2022-07-29T16:53:06;2.13;;;0.80;;
38935;SDS011;25541;47.458;9.644;2022-07-29T16:55:32;2.17;;;0.90;;
38935;SDS011;25541;47.458;9.644;2022-07-29T16:57:57;2.53;;;0.82;;
38935;SDS011;25541;47.458;9.644;2022-07-29T17:00:23;1.77;;;0.85;;
38935;SDS011;25541;47.458;9.644;2022-07-29T17:02:49;2.85;;;0.75;;
38935;SDS011;25541;47.458;9.644;2022-07-29T17:05:15;2.17;;;0.65;;
38935;SDS011;25541;47.458;9.644;2022-07-29T17:07:41;1.90;;;0.63;;
38935;SDS011;25541;47.458;9.644;2022-07-29T17:10:08;3.20;;;0.93;;
38935;SDS011;25541;47.458;9.644;2022-07-29T17:12:37;3.90;;;1.00;;
38935;SDS011;25541;47.458;9.644;2022-07-29T17:15:04;3.47;;;0.73;;
38935;SDS011;25541;47.458;9.644;2022-07-29T17:17:32;2.50;;;0.88;;
38935;SDS011;25541;47.458;9.644;2022-07-29T17:19:58;1.35;;;0.65;;
38935;SDS011;25541;47.458;9.644;2022-07-29T17:22:24;3.72;;;0.63;;
38935;SDS011;25541;47.458;9.644;2022-07-29T17:24:50;2.28;;;0.63;;
38935;SDS011;25541;47.458;9.644;2022-07-29T17:27:16;2.17;;;0.70;;
38935;SDS011;25541;47.458;9.644;2022-07-29T17:29:42;2.70;;;0.73;;
38935;SDS011;25541;47.458;9.644;2022-07-29T17:32:08;1.42;;;0.60;;
38935;SDS011;25541;47.458;9.644;2022-07-29T17:34:35;3.40;;;0.65;;
38935;SDS011;25541;47.458;9.644;2022-07-29T17:37:01;2.00;;;0.60;;
38935;SDS011;25541;47.458;9.644;2022-07-29T17:39:27;1.35;;;0.55;;
38935;SDS011;25541;47.458;9.644;2022-07-29T17:41:53;1.45;;;0.45;;
38935;SDS011;25541;47.458;9.644;2022-07-29T17:44:19;1.80;;;0.85;;
38935;SDS011;25541;47.458;9.644;2022-07-29T17:46:44;2.63;;;0.80;;
38935;SDS011;25541;47.458;9.644;2022-07-29T17:49:10;2.55;;;0.45;;
38935;SDS011;25541;47.458;9.644;2022-07-29T17:51:36;2.08;;;0.47;;
38935;SDS011;25541;47.458;9.644;2022-07-29T17:54:01;0.98;;;0.40;;
38935;SDS011;25541;47.458;9.644;2022-07-29T17:56:27;1.05;;;0.60;;
38935;SDS011;25541;47.458;9.644;2022-07-29T17:58:53;1.27;;;0.43;;
38935;SDS011;25541;47.458;9.644;2022-07-29T18:01:19;4.05;;;0.63;;
38935;SDS011;25541;47.458;9.644;2022-07-29T18:03:45;1.88;;;0.60;;
38935;SDS011;25541;47.458;9.644;2022-07-29T18:06:11;0.98;;;0.45;;
38935;SDS011;25541;47.458;9.644;2022-07-29T18:08:37;1.45;;;0.43;;
38935;SDS011;25541;47.458;9.644;2022-07-29T18:11:04;1.20;;;0.40;;
38935;SDS011;25541;47.458;9.644;2022-07-29T18:13:30;4.65;;;0.60;;
38935;SDS011;25541;47.458;9.644;2022-07-29T18:15:56;1.55;;;0.70;;
38935;SDS011;25541;47.458;9.644;2022-07-29T18:18:22;1.75;;;0.47;;
38935;SDS011;25541;47.458;9.644;2022-07-29T18:20:48;1.40;;;0.47;;
38935;SDS011;25541;47.458;9.644;2022-07-29T18:23:13;1.30;;;0.40;;
38935;SDS011;25541;47.458;9.644;2022-07-29T18:25:40;2.83;;;0.40;;
38935;SDS011;25541;47.458;9.644;2022-07-29T18:28:06;1.30;;;0.40;;
38935;SDS011;25541;47.458;9.644;2022-07-29T18:30:33;3.15;;;0.70;;
38935;SDS011;25541;47.458;9.644;2022-07-29T18:33:00;3.13;;;0.80;;
38935;SDS011;25541;47.458;9.644;2022-07-29T18:35:26;2.40;;;0.70;;
38935;SDS011;25541;47.458;9.644;2022-07-29T18:37:52;1.77;;;0.50;;
38935;SDS011;25541;47.458;9.644;2022-07-29T18:40:19;1.85;;;0.50;;